createdAt,value
2023-04-10T00:08:36.664Z,8.83
2023-04-10T00:18:39.862Z,8.83
2023-04-10T00:28:39.662Z,8.86
2023-04-10T00:38:39.822Z,8.88
2023-04-10T00:48:39.708Z,8.92
2023-04-10T00:58:39.768Z,8.94
2023-04-10T01:08:39.851Z,8.92
2023-04-10T01:18:39.869Z,8.90
2023-04-10T01:28:40.382Z,8.91
2023-04-10T01:38:41.076Z,8.94
2023-04-10T01:49:00.628Z,8.97
2023-04-10T01:59:00.978Z,9.05
2023-04-10T02:09:01.050Z,9.14
2023-04-10T02:19:00.899Z,9.23
2023-04-10T02:29:01.674Z,9.29
2023-04-10T02:39:02.290Z,9.33
2023-04-10T02:49:03.441Z,9.32
2023-04-10T02:59:04.313Z,9.27
2023-04-10T03:09:06.712Z,9.20
2023-04-10T03:19:07.121Z,9.15
2023-04-10T03:29:08.182Z,9.13
2023-04-10T03:39:08.154Z,9.13
2023-04-10T03:49:08.273Z,9.13
2023-04-10T03:59:10.784Z,9.13
2023-04-10T04:09:12.809Z,9.11
2023-04-10T04:19:14.898Z,9.10
2023-04-10T04:29:19.768Z,9.05
2023-04-10T04:39:22.608Z,8.97
2023-04-10T04:49:24.879Z,8.91
2023-04-10T04:59:41.974Z,8.90
2023-04-10T05:09:46.774Z,9.00
2023-04-10T05:19:52.033Z,9.20
2023-04-10T05:30:29.880Z,9.44
2023-04-10T05:40:32.080Z,9.74
2023-04-10T05:50:50.586Z,10.20
2023-04-10T06:01:09.522Z,10.81
2023-04-10T06:11:10.463Z,11.50
2023-04-10T06:21:11.146Z,12.20
2023-04-10T06:31:11.325Z,12.83
2023-04-10T06:41:14.158Z,13.35
2023-04-10T06:51:14.148Z,15.05
2023-04-10T07:01:14.250Z,18.65
2023-04-10T07:11:14.106Z,22.15
2023-04-10T07:21:14.138Z,24.53
2023-04-10T07:31:14.456Z,26.44
2023-04-10T07:41:15.221Z,27.50
2023-04-10T07:51:15.186Z,26.97
2023-04-10T08:01:15.932Z,26.52
2023-04-10T08:11:16.861Z,27.01
2023-04-10T08:21:17.290Z,28.05
2023-04-10T08:31:17.391Z,29.05
2023-04-10T08:41:17.280Z,29.53
2023-04-10T08:51:20.074Z,29.21
2023-04-10T09:01:19.525Z,28.66
2023-04-10T09:11:19.315Z,28.29
2023-04-10T09:21:19.514Z,28.25
2023-04-10T09:31:19.457Z,28.81
2023-04-10T09:41:19.533Z,29.63
2023-04-10T09:51:19.434Z,29.94
2023-04-10T10:01:19.439Z,29.65
2023-04-10T10:11:19.391Z,29.16
2023-04-10T10:21:21.444Z,28.64
2023-04-10T10:31:22.121Z,28.25
2023-04-10T10:41:22.556Z,27.80
2023-04-10T10:51:22.504Z,27.22
2023-04-10T11:01:22.547Z,26.70
2023-04-10T11:11:22.974Z,26.39
2023-04-10T11:21:23.572Z,26.19
2023-04-10T11:31:23.824Z,25.99
2023-04-10T11:41:24.593Z,25.78
2023-04-10T11:51:24.570Z,25.72
2023-04-10T12:01:24.808Z,25.69
2023-04-10T12:11:24.746Z,25.51
2023-04-10T12:21:25.878Z,25.28
2023-04-10T12:31:27.606Z,25.06
2023-04-10T12:41:27.746Z,24.88
2023-04-10T12:51:27.607Z,24.89
2023-04-10T13:01:27.744Z,24.97
2023-04-10T13:11:27.690Z,24.91
2023-04-10T13:21:28.271Z,24.93
2023-04-10T13:31:29.107Z,24.91
2023-04-10T13:41:30.045Z,24.88
2023-04-10T13:51:30.482Z,24.75
2023-04-10T14:01:30.956Z,24.38
2023-04-10T14:11:30.811Z,23.96
2023-04-10T14:21:31.922Z,23.57
2023-04-10T14:31:31.932Z,23.27
2023-04-10T14:41:31.828Z,23.16
2023-04-10T14:51:33.145Z,23.27
2023-04-10T15:01:32.943Z,23.53
2023-04-10T15:11:32.849Z,23.67
2023-04-10T15:21:32.928Z,23.48
2023-04-10T15:31:32.980Z,23.14
2023-04-10T15:41:33.567Z,22.81
2023-04-10T15:51:34.190Z,22.35
2023-04-10T16:01:34.011Z,21.74
2023-04-10T16:11:34.009Z,21.06
2023-04-10T16:21:33.929Z,20.39
2023-04-10T16:31:34.039Z,19.81
2023-04-10T16:41:34.006Z,19.20
2023-04-10T16:51:34.062Z,18.44
2023-04-10T17:01:36.013Z,17.61
2023-04-10T17:11:35.951Z,16.93
2023-04-10T17:21:36.005Z,16.55
2023-04-10T17:31:36.108Z,16.30
2023-04-10T17:41:36.039Z,16.05
2023-04-10T17:51:36.295Z,15.88
2023-04-10T18:01:36.206Z,15.78
2023-04-10T18:11:36.307Z,15.64
2023-04-10T18:21:36.151Z,15.37
2023-04-10T18:31:36.207Z,15.10
2023-04-10T18:41:37.885Z,14.85
2023-04-10T18:51:40.295Z,14.56
2023-04-10T19:01:40.418Z,14.36
2023-04-10T19:11:42.212Z,14.21
2023-04-10T19:21:42.299Z,13.98
2023-04-10T19:31:42.388Z,13.70
2023-04-10T19:41:42.557Z,13.41
2023-04-10T19:51:43.259Z,13.14
2023-04-10T20:01:43.458Z,12.91
2023-04-10T20:11:43.281Z,12.72
2023-04-10T20:21:43.291Z,12.48
2023-04-10T20:31:43.740Z,12.21
2023-04-10T20:41:44.358Z,11.95
2023-04-10T20:51:44.304Z,11.71
2023-04-10T21:01:44.538Z,11.52
2023-04-10T21:11:44.325Z,11.37
2023-04-10T21:21:44.308Z,11.25
2023-04-10T21:31:49.392Z,11.14
2023-04-10T21:41:49.457Z,11.06
2023-04-10T21:51:49.435Z,11.00
2023-04-10T22:01:49.650Z,10.97
2023-04-10T22:11:50.586Z,10.93
2023-04-10T22:21:51.450Z,10.90
2023-04-10T22:31:51.502Z,10.86
2023-04-10T22:41:51.530Z,10.87
2023-04-10T22:51:51.520Z,10.86
2023-04-10T23:01:51.656Z,10.85
2023-04-10T23:11:51.430Z,10.91
2023-04-10T23:21:52.993Z,10.98
2023-04-10T23:31:53.572Z,11.02
2023-04-10T23:41:53.587Z,10.99
2023-04-10T23:51:53.573Z,10.95
